createdAt,value
2022-08-30T00:00:09.244Z,75.04
2022-08-30T00:02:35.966Z,75.63
2022-08-30T00:05:03.998Z,75.56
2022-08-30T00:07:30.959Z,75.91
2022-08-30T00:09:57.363Z,75.76
2022-08-30T00:12:23.832Z,75.78
2022-08-30T00:14:50.392Z,75.74
2022-08-30T00:17:17.148Z,75.61
2022-08-30T00:19:43.727Z,75.72
2022-08-30T00:22:10.433Z,75.98
2022-08-30T00:24:36.863Z,75.70
2022-08-30T00:27:03.364Z,76.16
2022-08-30T00:29:30.213Z,75.85
2022-08-30T00:31:56.586Z,75.90
2022-08-30T00:34:22.999Z,75.69
2022-08-30T00:36:51.779Z,75.97
2022-08-30T00:39:18.148Z,76.15
2022-08-30T00:41:44.860Z,75.96
2022-08-30T00:44:11.417Z,76.06
2022-08-30T00:46:38.126Z,76.24
2022-08-30T00:49:08.891Z,76.34
2022-08-30T00:51:35.691Z,76.38
2022-08-30T00:54:03.891Z,76.94
2022-08-30T00:56:32.416Z,76.74
2022-08-30T00:59:01.981Z,76.93
2022-08-30T01:01:30.332Z,77.08
2022-08-30T01:03:59.610Z,77.03
2022-08-30T01:06:26.160Z,76.85
2022-08-30T01:09:00.611Z,76.95
2022-08-30T01:11:28.131Z,77.03
2022-08-30T01:13:56.288Z,77.08
2022-08-30T01:16:25.305Z,77.05
2022-08-30T01:18:57.444Z,77.42
2022-08-30T01:21:35.120Z,77.30
2022-08-30T01:24:03.029Z,77.18
2022-08-30T01:26:30.644Z,77.37
2022-08-30T01:29:01.917Z,77.29
2022-08-30T01:31:28.488Z,76.97
2022-08-30T01:33:55.055Z,76.71
2022-08-30T01:36:21.972Z,77.24
2022-08-30T01:38:55.207Z,77.18
2022-08-30T01:41:31.477Z,77.27
2022-08-30T01:44:00.755Z,77.44
2022-08-30T01:46:39.796Z,77.55
2022-08-30T01:49:09.595Z,77.89
2022-08-30T01:51:37.075Z,77.32
2022-08-30T01:54:04.275Z,77.24
2022-08-30T01:56:30.728Z,77.26
2022-08-30T01:59:02.365Z,77.60
2022-08-30T02:01:40.278Z,77.54
2022-08-30T02:10:32.441Z,77.56
2022-08-30T02:13:17.768Z,77.70
2022-08-30T02:15:44.264Z,77.65
2022-08-30T02:18:10.900Z,77.53
2022-08-30T02:20:39.541Z,77.55
2022-08-30T02:23:05.961Z,77.68
2022-08-30T02:25:32.451Z,77.89
2022-08-30T02:27:59.061Z,77.86
2022-08-30T02:30:25.510Z,77.83
2022-08-30T02:32:52.505Z,78.01
2022-08-30T02:35:19.012Z,78.37
2022-08-30T02:37:45.912Z,78.43
2022-08-30T02:40:12.878Z,78.47
2022-08-30T02:42:42.587Z,78.45
2022-08-30T02:45:24.685Z,78.49
2022-08-30T02:48:00.862Z,78.48
2022-08-30T02:53:08.393Z,78.48
2022-08-30T02:55:39.448Z,78.41
2022-08-30T02:58:06.825Z,78.51
2022-08-30T03:00:34.330Z,78.80
2022-08-30T03:03:03.624Z,78.96
2022-08-30T03:05:33.477Z,79.06
2022-08-30T03:08:00.615Z,78.99
2022-08-30T03:10:29.118Z,78.99
2022-08-30T03:12:56.296Z,79.17
2022-08-30T03:15:25.534Z,78.99
2022-08-30T03:17:53.882Z,79.13
2022-08-30T03:20:21.525Z,79.25
2022-08-30T03:22:48.421Z,79.31
2022-08-30T03:25:15.486Z,79.07
2022-08-30T03:27:42.050Z,78.95
2022-08-30T03:30:09.645Z,78.91
2022-08-30T03:32:36.624Z,79.15
2022-08-30T03:35:04.006Z,78.83
2022-08-30T03:37:30.625Z,79.33
2022-08-30T03:39:57.385Z,79.19
2022-08-30T03:42:24.789Z,79.45
2022-08-30T03:44:51.988Z,79.66
2022-08-30T03:47:18.568Z,79.64
2022-08-30T03:49:45.003Z,79.70
2022-08-30T03:52:11.534Z,79.70
2022-08-30T03:55:01.565Z,79.73
2022-08-30T03:57:28.802Z,79.78
2022-08-30T03:59:55.433Z,79.70
2022-08-30T04:02:22.077Z,79.72
2022-08-30T04:04:48.760Z,80.07
2022-08-30T04:07:15.186Z,79.69
2022-08-30T04:09:42.020Z,80.09
2022-08-30T04:12:09.248Z,80.19
2022-08-30T04:14:35.801Z,79.98
2022-08-30T04:17:02.209Z,80.07
2022-08-30T04:19:28.615Z,79.30
2022-08-30T04:21:55.122Z,79.70
2022-08-30T04:24:21.507Z,79.67
2022-08-30T04:26:48.103Z,79.62
2022-08-30T04:29:17.013Z,79.67
2022-08-30T04:31:45.254Z,79.54
2022-08-30T04:34:13.055Z,79.86
2022-08-30T04:36:39.903Z,80.03
2022-08-30T04:39:07.143Z,79.80
2022-08-30T04:41:33.968Z,80.09
2022-08-30T04:44:03.566Z,79.68
2022-08-30T04:46:30.471Z,79.75
2022-08-30T04:48:57.179Z,79.97
2022-08-30T04:51:23.626Z,79.99
2022-08-30T04:53:50.035Z,79.76
2022-08-30T04:56:22.188Z,79.79
2022-08-30T04:58:51.178Z,79.64
2022-08-30T05:01:21.569Z,79.92
2022-08-30T05:03:51.476Z,80.04
2022-08-30T05:06:19.123Z,80.11
2022-08-30T05:08:46.876Z,79.86
2022-08-30T05:11:14.927Z,79.98
2022-08-30T05:13:41.375Z,80.28
2022-08-30T05:16:08.799Z,80.38
2022-08-30T05:18:36.633Z,80.17
2022-08-30T05:21:13.605Z,80.54
2022-08-30T05:23:41.191Z,80.11
2022-08-30T05:26:13.116Z,80.25
2022-08-30T05:28:40.073Z,80.57
2022-08-30T05:31:14.684Z,80.99
2022-08-30T05:33:42.171Z,80.58
2022-08-30T05:36:10.128Z,80.77
2022-08-30T05:38:36.585Z,80.44
2022-08-30T05:41:10.607Z,80.25
2022-08-30T05:43:37.981Z,79.62
2022-08-30T05:46:10.569Z,78.85
2022-08-30T05:48:38.069Z,77.52
2022-08-30T05:51:11.632Z,77.72
2022-08-30T05:53:39.326Z,78.12
2022-08-30T05:56:08.312Z,77.56
2022-08-30T05:58:35.240Z,77.65
2022-08-30T06:01:02.025Z,77.57
2022-08-30T06:03:29.117Z,77.49
2022-08-30T06:05:55.841Z,78.00
2022-08-30T06:08:22.300Z,78.13
2022-08-30T06:10:48.708Z,77.96
2022-08-30T06:13:15.516Z,77.73
2022-08-30T06:15:45.297Z,77.34
2022-08-30T06:18:12.900Z,73.06
2022-08-30T06:20:43.963Z,68.29
2022-08-30T06:23:11.040Z,61.97
2022-08-30T06:25:41.173Z,57.72
2022-08-30T06:28:09.571Z,55.70
2022-08-30T06:30:36.453Z,55.93
2022-08-30T06:33:02.867Z,60.11
2022-08-30T06:35:30.839Z,63.55
2022-08-30T06:38:01.766Z,66.49
2022-08-30T06:40:28.289Z,68.31
2022-08-30T06:43:01.017Z,69.74
2022-08-30T06:45:27.581Z,70.93
2022-08-30T06:47:54.028Z,71.47
2022-08-30T06:50:20.833Z,71.92
2022-08-30T06:52:47.892Z,71.85
2022-08-30T06:55:16.164Z,72.75
2022-08-30T06:57:42.916Z,72.15
2022-08-30T07:00:14.136Z,71.67
2022-08-30T07:02:41.691Z,71.67
2022-08-30T07:05:08.848Z,71.18
2022-08-30T07:07:35.548Z,71.09
2022-08-30T07:10:04.836Z,70.82
2022-08-30T07:12:31.544Z,70.33
2022-08-30T07:14:58.106Z,70.31
2022-08-30T07:17:43.077Z,70.08
2022-08-30T07:20:10.373Z,63.90
2022-08-30T07:22:37.001Z,55.17
2022-08-30T07:25:03.828Z,48.95
2022-08-30T07:27:30.784Z,47.03
2022-08-30T07:29:58.771Z,42.96
2022-08-30T07:32:25.642Z,40.53
2022-08-30T07:34:52.219Z,40.73
2022-08-30T07:37:19.074Z,39.61
2022-08-30T07:39:48.048Z,40.16
2022-08-30T07:42:15.731Z,39.14
2022-08-30T07:44:42.491Z,38.74
2022-08-30T07:47:09.198Z,38.33
2022-08-30T07:49:37.531Z,38.39
2022-08-30T07:52:04.564Z,35.78
2022-08-30T07:54:30.978Z,35.59
2022-08-30T07:57:07.976Z,36.05
2022-08-30T07:59:36.168Z,35.49
2022-08-30T08:02:03.034Z,33.68
2022-08-30T08:04:29.688Z,33.66
2022-08-30T08:06:56.284Z,34.07
2022-08-30T08:09:22.825Z,33.58
2022-08-30T08:11:49.405Z,34.57
2022-08-30T08:16:44.992Z,34.58
2022-08-30T08:19:12.279Z,34.12
2022-08-30T08:21:38.760Z,34.24
2022-08-30T08:24:05.554Z,34.63
2022-08-30T08:26:35.752Z,34.38
2022-08-30T08:29:03.057Z,34.87
2022-08-30T08:31:33.428Z,33.98
2022-08-30T08:34:02.843Z,32.75
2022-08-30T08:36:31.438Z,33.84
2022-08-30T08:38:58.557Z,35.10
2022-08-30T08:41:36.858Z,35.29
2022-08-30T08:44:14.396Z,35.77
2022-08-30T08:47:06.149Z,34.63
2022-08-30T08:49:36.060Z,33.97
2022-08-30T08:52:34.461Z,35.29
2022-08-30T08:55:07.388Z,34.80
2022-08-30T08:57:35.819Z,35.87
2022-08-30T09:00:08.565Z,35.96
2022-08-30T09:02:43.377Z,34.57
2022-08-30T09:05:14.679Z,34.96
2022-08-30T09:07:48.565Z,34.78
2022-08-30T09:10:16.821Z,33.94
2022-08-30T09:12:47.011Z,34.75
2022-08-30T09:15:26.402Z,35.29
2022-08-30T09:18:04.739Z,36.82
2022-08-30T09:20:48.881Z,35.32
2022-08-30T09:23:15.251Z,35.26
2022-08-30T09:26:10.993Z,35.52
2022-08-30T09:28:51.340Z,35.18
2022-08-30T09:31:30.378Z,34.05
2022-08-30T09:34:03.737Z,33.69
2022-08-30T09:36:41.093Z,32.91
2022-08-30T09:39:30.323Z,33.90
2022-08-30T09:42:15.063Z,33.54
2022-08-30T09:44:41.781Z,32.55
2022-08-30T09:47:23.916Z,32.29
2022-08-30T09:50:04.600Z,33.27
2022-08-30T09:52:53.316Z,34.18
2022-08-30T09:55:43.394Z,34.84
2022-08-30T09:58:30.100Z,34.86
2022-08-30T10:01:07.573Z,35.29
2022-08-30T10:03:43.323Z,35.93
2022-08-30T10:06:39.354Z,34.71
2022-08-30T10:09:27.310Z,33.16
2022-08-30T10:12:02.022Z,34.14
2022-08-30T10:14:48.680Z,34.16
2022-08-30T10:17:45.898Z,34.22
2022-08-30T10:20:30.948Z,33.62
2022-08-30T10:23:10.028Z,34.03
2022-08-30T10:25:44.564Z,35.28
2022-08-30T10:28:14.585Z,35.31
2022-08-30T10:31:04.015Z,34.45
2022-08-30T10:33:44.368Z,35.83
2022-08-30T10:36:13.335Z,35.31
2022-08-30T10:38:44.688Z,35.63
2022-08-30T10:41:33.643Z,36.64
2022-08-30T10:44:07.785Z,35.79
2022-08-30T10:47:10.606Z,35.69
2022-08-30T10:49:45.294Z,35.43
2022-08-30T10:52:12.340Z,35.12
2022-08-30T10:54:48.476Z,34.83
2022-08-30T10:57:14.904Z,35.26
2022-08-30T11:00:01.260Z,35.63
2022-08-30T11:03:03.071Z,35.72
2022-08-30T11:05:43.225Z,35.54
2022-08-30T11:08:43.588Z,35.96
2022-08-30T11:11:22.047Z,36.08
2022-08-30T11:13:51.657Z,36.37
2022-08-30T11:16:20.455Z,35.81
2022-08-30T11:19:00.126Z,35.51
2022-08-30T11:21:39.698Z,34.97
2022-08-30T11:24:12.608Z,34.00
2022-08-30T11:26:45.870Z,34.47
2022-08-30T11:29:40.142Z,35.80
2022-08-30T11:32:12.818Z,34.92
2022-08-30T11:34:45.419Z,35.55
2022-08-30T11:37:44.664Z,36.16
2022-08-30T11:40:20.085Z,35.87
2022-08-30T11:42:49.515Z,36.04
2022-08-30T11:45:26.529Z,35.29
2022-08-30T11:47:56.145Z,35.58
2022-08-30T11:50:48.285Z,35.28
2022-08-30T11:53:44.111Z,35.41
2022-08-30T11:56:34.775Z,35.66
2022-08-30T11:59:11.584Z,36.12
2022-08-30T12:01:50.623Z,37.57
2022-08-30T12:04:19.628Z,36.14
2022-08-30T12:07:06.955Z,36.38
2022-08-30T12:09:34.932Z,35.58
2022-08-30T12:12:06.107Z,35.99
2022-08-30T12:14:44.629Z,36.01
2022-08-30T12:18:15.568Z,35.42
2022-08-30T12:20:49.492Z,35.41
2022-08-30T12:23:30.783Z,35.58
2022-08-30T12:26:14.867Z,36.52
2022-08-30T12:28:43.249Z,35.35
2022-08-30T12:31:17.532Z,36.40
2022-08-30T12:33:47.625Z,34.83
2022-08-30T12:36:50.252Z,36.03
2022-08-30T12:39:20.612Z,34.61
2022-08-30T12:41:47.173Z,35.05
2022-08-30T12:44:27.656Z,36.32
2022-08-30T12:47:00.280Z,36.36
2022-08-30T12:49:31.198Z,35.12
2022-08-30T12:52:29.398Z,35.87
2022-08-30T12:55:17.400Z,40.01
2022-08-30T12:58:00.738Z,37.83
2022-08-30T13:00:47.114Z,36.73
2022-08-30T13:03:39.347Z,38.23
2022-08-30T13:06:08.012Z,37.18
2022-08-30T13:08:49.096Z,37.50
2022-08-30T13:11:21.324Z,39.16
2022-08-30T13:13:52.167Z,36.75
2022-08-30T13:16:20.417Z,37.14
2022-08-30T13:18:50.012Z,37.98
2022-08-30T13:21:34.624Z,36.04
2022-08-30T13:24:03.943Z,35.34
2022-08-30T13:26:33.002Z,36.98
2022-08-30T13:29:02.204Z,35.91
2022-08-30T13:31:30.878Z,34.86
2022-08-30T13:33:57.921Z,34.68
2022-08-30T13:36:34.248Z,35.19
2022-08-30T13:39:01.861Z,34.35
2022-08-30T13:41:30.187Z,35.66
2022-08-30T13:44:16.322Z,34.79
2022-08-30T13:46:53.378Z,36.01
2022-08-30T13:52:23.026Z,36.59
2022-08-30T13:54:54.676Z,36.42
2022-08-30T14:00:19.083Z,35.06
2022-08-30T14:02:54.267Z,35.04
2022-08-30T14:08:45.283Z,34.52
2022-08-30T14:11:16.324Z,34.69
2022-08-30T14:16:33.215Z,34.33
2022-08-30T14:19:01.191Z,34.89
2022-08-30T14:21:28.475Z,33.55
2022-08-30T14:23:57.727Z,34.41
2022-08-30T14:26:33.203Z,34.19
2022-08-30T14:29:05.024Z,36.76
2022-08-30T14:31:35.654Z,36.37
2022-08-30T14:34:04.060Z,35.18
2022-08-30T14:36:31.785Z,34.96
2022-08-30T14:38:58.579Z,35.11
2022-08-30T14:41:25.486Z,34.63
2022-08-30T14:43:52.548Z,35.04
2022-08-30T14:46:19.282Z,35.67
2022-08-30T14:48:46.954Z,35.75
2022-08-30T14:51:16.728Z,35.53
2022-08-30T14:53:43.815Z,36.30
2022-08-30T14:56:12.676Z,35.80
2022-08-30T14:58:39.436Z,35.14
2022-08-30T15:01:08.710Z,36.20
2022-08-30T15:03:36.806Z,35.74
2022-08-30T15:06:03.443Z,36.89
2022-08-30T15:08:29.967Z,36.38
2022-08-30T15:10:56.393Z,35.91
2022-08-30T15:13:23.012Z,35.76
2022-08-30T15:15:49.600Z,36.24
2022-08-30T15:18:17.563Z,35.63
2022-08-30T15:20:49.774Z,35.75
2022-08-30T15:23:17.136Z,36.82
2022-08-30T15:25:49.496Z,36.51
2022-08-30T15:28:16.786Z,36.03
2022-08-30T15:30:44.300Z,36.00
2022-08-30T15:33:10.964Z,35.94
2022-08-30T15:35:37.541Z,36.12
2022-08-30T15:38:04.049Z,36.66
2022-08-30T15:40:32.802Z,36.14
2022-08-30T15:42:59.320Z,37.11
2022-08-30T15:45:25.788Z,36.36
2022-08-30T15:47:52.177Z,35.91
2022-08-30T15:50:18.561Z,35.89
2022-08-30T15:52:45.013Z,37.60
2022-08-30T15:55:11.471Z,37.33
2022-08-30T15:57:37.885Z,36.97
2022-08-30T16:00:08.161Z,37.10
2022-08-30T16:02:35.077Z,37.91
2022-08-30T16:05:02.026Z,37.68
2022-08-30T16:07:28.779Z,36.88
2022-08-30T16:09:55.204Z,36.89
2022-08-30T16:12:23.288Z,36.82
2022-08-30T16:14:50.676Z,37.94
2022-08-30T16:17:17.347Z,37.49
2022-08-30T16:19:44.732Z,37.63
2022-08-30T16:22:11.275Z,37.36
2022-08-30T16:24:38.548Z,38.38
2022-08-30T16:27:05.960Z,37.83
2022-08-30T16:29:35.442Z,37.91
2022-08-30T16:32:01.975Z,37.66
2022-08-30T16:34:28.656Z,38.13
2022-08-30T16:36:55.204Z,38.33
2022-08-30T16:39:21.634Z,38.23
2022-08-30T16:41:48.255Z,37.33
2022-08-30T16:44:15.640Z,37.97
2022-08-30T16:46:52.673Z,38.60
2022-08-30T16:49:20.583Z,37.75
2022-08-30T16:51:49.625Z,38.43
2022-08-30T16:54:17.525Z,38.44
2022-08-30T16:56:45.077Z,38.49
2022-08-30T16:59:13.083Z,38.46
2022-08-30T17:01:42.295Z,38.75
2022-08-30T17:04:09.144Z,39.10
2022-08-30T17:06:35.951Z,38.93
2022-08-30T17:09:03.816Z,40.06
2022-08-30T17:11:32.117Z,39.35
2022-08-30T17:13:58.635Z,39.90
2022-08-30T17:16:27.546Z,39.98
2022-08-30T17:18:56.056Z,39.77
2022-08-30T17:21:26.709Z,40.63
2022-08-30T17:23:53.107Z,40.37
2022-08-30T17:26:20.324Z,40.32
2022-08-30T17:28:47.036Z,40.52
2022-08-30T17:31:14.868Z,41.29
2022-08-30T17:33:43.095Z,40.87
2022-08-30T17:36:12.226Z,41.56
2022-08-30T17:38:38.672Z,41.72
2022-08-30T17:41:11.349Z,42.10
2022-08-30T17:43:38.010Z,42.38
2022-08-30T17:46:10.653Z,42.68
2022-08-30T17:48:38.389Z,42.88
2022-08-30T17:51:06.286Z,43.67
2022-08-30T17:53:34.424Z,43.53
2022-08-30T17:56:01.057Z,43.79
2022-08-30T17:58:27.453Z,44.40
2022-08-30T18:01:11.725Z,44.14
2022-08-30T18:03:38.973Z,44.20
2022-08-30T18:06:06.899Z,44.51
2022-08-30T18:08:34.798Z,45.00
2022-08-30T18:11:04.035Z,45.49
2022-08-30T18:13:33.459Z,45.83
2022-08-30T18:16:04.676Z,46.16
2022-08-30T18:18:32.037Z,46.16
2022-08-30T18:20:58.744Z,46.65
2022-08-30T18:23:26.683Z,47.08
2022-08-30T18:26:01.370Z,47.37
2022-08-30T18:28:29.142Z,47.63
2022-08-30T18:30:57.142Z,47.63
2022-08-30T18:33:24.915Z,47.28
2022-08-30T18:35:52.125Z,47.96
2022-08-30T18:38:19.811Z,48.00
2022-08-30T18:40:52.283Z,48.73
2022-08-30T18:43:24.611Z,48.96
2022-08-30T18:46:03.366Z,48.62
2022-08-30T18:48:30.222Z,49.47
2022-08-30T18:50:57.135Z,49.37
2022-08-30T18:53:28.757Z,49.60
2022-08-30T18:55:56.921Z,49.82
2022-08-30T18:58:23.499Z,50.32
2022-08-30T19:00:50.028Z,50.63
2022-08-30T19:03:18.779Z,50.81
2022-08-30T19:05:45.782Z,50.56
2022-08-30T19:08:13.853Z,51.24
2022-08-30T19:10:40.966Z,51.81
2022-08-30T19:13:08.113Z,51.69
2022-08-30T19:15:35.156Z,52.45
2022-08-30T19:18:02.424Z,52.75
2022-08-30T19:20:43.519Z,52.86
2022-08-30T19:23:12.944Z,53.21
2022-08-30T19:25:41.166Z,52.88
2022-08-30T19:28:08.079Z,52.99
2022-08-30T19:30:35.409Z,53.00
2022-08-30T19:33:02.200Z,53.30
2022-08-30T19:35:30.183Z,53.11
2022-08-30T19:37:57.333Z,53.58
2022-08-30T19:40:23.878Z,53.65
2022-08-30T19:42:53.472Z,53.88
2022-08-30T19:45:22.646Z,54.19
2022-08-30T19:47:50.726Z,54.39
2022-08-30T19:50:17.847Z,54.55
2022-08-30T19:52:48.405Z,54.89
2022-08-30T19:55:19.589Z,54.94
2022-08-30T19:57:55.140Z,54.96
2022-08-30T20:00:23.353Z,55.25
2022-08-30T20:02:51.154Z,55.46
2022-08-30T20:05:18.203Z,56.01
2022-08-30T20:07:46.156Z,56.28
2022-08-30T20:10:15.627Z,56.29
2022-08-30T20:12:46.897Z,56.56
2022-08-30T20:15:17.163Z,56.67
2022-08-30T20:18:03.137Z,57.29
2022-08-30T20:20:36.430Z,57.13
2022-08-30T20:23:03.694Z,57.70
2022-08-30T20:25:30.703Z,57.92
2022-08-30T20:27:57.400Z,58.40
2022-08-30T20:30:23.900Z,58.67
2022-08-30T20:32:52.671Z,59.09
2022-08-30T20:35:19.678Z,59.22
2022-08-30T20:37:46.763Z,59.66
2022-08-30T20:40:15.959Z,60.06
2022-08-30T20:42:45.453Z,60.29
2022-08-30T20:45:15.400Z,61.02
2022-08-30T20:47:43.117Z,61.08
2022-08-30T20:50:13.683Z,61.16
2022-08-30T20:52:40.743Z,61.38
2022-08-30T20:55:08.176Z,61.67
2022-08-30T20:57:34.719Z,61.35
2022-08-30T21:00:01.825Z,61.22
2022-08-30T21:02:28.556Z,62.17
2022-08-30T21:04:55.181Z,62.36
2022-08-30T21:07:21.665Z,61.94
2022-08-30T21:09:48.108Z,62.45
2022-08-30T21:12:14.558Z,62.74
2022-08-30T21:14:41.010Z,62.94
2022-08-30T21:17:07.545Z,63.46
2022-08-30T21:19:34.024Z,62.76
2022-08-30T21:22:00.412Z,63.73
2022-08-30T21:24:27.028Z,63.53
2022-08-30T21:26:55.770Z,63.25
2022-08-30T21:29:22.566Z,63.26
2022-08-30T21:31:49.312Z,63.45
2022-08-30T21:34:17.240Z,64.19
2022-08-30T21:38:53.216Z,64.49
2022-08-30T21:40:05.665Z,64.10
2022-08-30T21:42:33.038Z,64.15
2022-08-30T21:45:09.064Z,64.27
2022-08-30T21:50:20.133Z,64.12
2022-08-30T21:52:46.735Z,64.05
2022-08-30T21:55:57.452Z,64.45
2022-08-30T21:58:24.145Z,64.11
2022-08-30T22:00:50.812Z,64.42
2022-08-30T22:03:17.537Z,64.35
2022-08-30T22:05:51.276Z,64.84
2022-08-30T22:08:17.671Z,64.75
2022-08-30T22:10:45.021Z,64.95
2022-08-30T22:13:31.223Z,64.76
2022-08-30T22:15:57.883Z,64.60
2022-08-30T22:18:24.300Z,64.39
2022-08-30T22:20:50.847Z,64.54
2022-08-30T22:23:19.079Z,64.30
2022-08-30T22:25:56.979Z,63.97
2022-08-30T22:28:24.089Z,64.17
2022-08-30T22:30:50.861Z,64.32
2022-08-30T22:33:18.979Z,64.59
2022-08-30T22:35:47.033Z,64.72
2022-08-30T22:38:28.310Z,64.91
2022-08-30T22:40:54.817Z,64.77
2022-08-30T22:43:22.435Z,64.87
2022-08-30T22:45:49.056Z,64.50
2022-08-30T22:48:19.024Z,64.81
2022-08-30T22:50:45.624Z,64.81
2022-08-30T22:53:12.029Z,64.46
2022-08-30T22:55:41.494Z,64.84
2022-08-30T22:58:08.140Z,64.72
2022-08-30T23:00:34.604Z,64.67
2022-08-30T23:03:00.999Z,64.88
2022-08-30T23:05:27.608Z,64.81
2022-08-30T23:07:54.104Z,64.64
2022-08-30T23:10:21.891Z,64.55
2022-08-30T23:12:48.367Z,64.75
2022-08-30T23:15:16.100Z,64.79
2022-08-30T23:17:42.743Z,64.67
2022-08-30T23:20:09.792Z,64.89
2022-08-30T23:22:36.376Z,64.95
2022-08-30T23:25:21.914Z,65.19
2022-08-30T23:28:09.333Z,65.04
2022-08-30T23:30:54.446Z,65.30
2022-08-30T23:33:39.630Z,65.37
2022-08-30T23:36:31.659Z,65.57
2022-08-30T23:39:17.398Z,65.39
2022-08-30T23:42:06.511Z,65.41
2022-08-30T23:44:52.049Z,65.30
2022-08-30T23:47:37.497Z,65.36
2022-08-30T23:50:22.956Z,65.50
2022-08-30T23:53:10.892Z,65.40
2022-08-30T23:55:58.147Z,65.28
2022-08-30T23:58:43.600Z,65.28
